Time;durP1;ratioP1;P1;durP2;ratioP2;P2;SDS_P1;SDS_P2;PMS_P1;PMS_P2;Temp;Humidity;BMP_temperature;BMP_pressure;BME280_temperature;BME280_humidity;BME280_pressure;Samples;Min_cycle;Max_cycle;Signal;HPM_P1;HPM_P2
2024/04/19 00:01:18;;;;;;;;;;;;;;;5.50;93.00;99421.09;5329327;26;19938;-58
2024/04/19 00:03:48;;;;;;;;;;;;;;;5.49;93.54;99414.13;5325420;26;19937;-58
2024/04/19 00:06:17;;;;;;;;;;;;;;;5.35;94.45;99408.81;5322113;26;19933;-57
2024/04/19 00:08:48;;;;;;;;;;;;;;;5.34;94.79;99407.19;5324528;26;19981;-58
2024/04/19 00:11:15;;;;;;;;;;;;;;;5.32;94.63;99403.09;5325499;26;19926;-58
2024/04/19 00:13:45;;;;;;;;;;;;;;;5.25;95.82;99386.31;5330020;26;20403;-57
2024/04/19 00:16:13;;;;;;;;;;;;;;;5.12;96.08;99392.44;5327249;26;19942;-58
2024/04/19 00:18:46;;;;;;;;;;;;;;;5.24;95.59;99393.50;5330627;26;20282;-57
2024/04/19 00:21:13;;;;;;;;;;;;;;;5.17;98.03;99388.16;5322653;26;20459;-60
2024/04/19 00:23:44;;;;;;;;;;;;;;;5.12;97.90;99385.28;5320782;26;19934;-57
2024/04/19 00:26:11;;;;;;;;;;;;;;;5.07;97.82;99379.78;5318172;26;19944;-60
2024/04/19 00:28:43;;;;;;;;;;;;;;;5.01;98.03;99374.44;5327270;26;19963;-60
2024/04/19 00:31:11;;;;;;;;;;;;;;;5.00;99.03;99367.50;5323760;26;19946;-60
2024/04/19 00:33:41;;;;;;;;;;;;;;;4.97;99.83;99364.22;5324176;26;20743;-60
2024/04/19 00:36:14;;;;;;;;;;;;;;;4.90;100.00;99363.41;5325745;26;20486;-57
2024/04/19 00:38:41;;;;;;;;;;;;;;;4.91;100.00;99358.91;5332437;26;19954;-58
2024/04/19 00:41:17;;;;;;;;;;;;;;;4.89;100.00;99356.47;5327019;26;20586;-58
2024/04/19 00:43:45;;;;;;;;;;;;;;;4.83;100.00;99349.28;5321373;26;20522;-58
2024/04/19 00:46:15;;;;;;;;;;;;;;;4.93;100.00;99344.38;5326621;26;20475;-61
2024/04/19 00:48:46;;;;;;;;;;;;;;;4.91;100.00;99337.66;5328817;26;19926;-58
2024/04/19 00:51:19;;;;;;;;;;;;;;;4.84;100.00;99336.81;5325531;26;19937;-58
2024/04/19 00:53:48;;;;;;;;;;;;;;;4.92;100.00;99329.47;5325661;26;19930;-60
2024/04/19 00:56:47;;;;;;;;;;;;;;;4.93;100.00;99327.66;5316721;26;19945;-57
2024/04/19 00:59:15;;;;;;;;;;;;;;;4.96;100.00;99314.75;5321531;26;20643;-60
2024/04/19 01:01:48;;;;;;;;;;;;;;;4.94;100.00;99315.97;5327850;26;19933;-60
2024/04/19 01:04:16;;;;;;;;;;;;;;;4.97;100.00;99311.09;5329072;26;19925;-60
2024/04/19 01:06:48;;;;;;;;;;;;;;;5.07;100.00;99304.56;5323465;26;19926;-60
2024/04/19 01:09:16;;;;;;;;;;;;;;;4.92;100.00;99297.63;5325185;26;19926;-60
2024/04/19 01:11:46;;;;;;;;;;;;;;;4.98;100.00;99291.47;5323940;26;20248;-60
2024/04/19 01:14:13;;;;;;;;;;;;;;;4.96;100.00;99293.50;5326080;26;20253;-60
2024/04/19 01:16:43;;;;;;;;;;;;;;;4.95;100.00;99291.88;5322186;26;20385;-60
2024/04/19 01:19:11;;;;;;;;;;;;;;;4.78;100.00;99290.66;5326090;26;19974;-60
2024/04/19 01:21:42;;;;;;;;;;;;;;;4.88;100.00;99285.75;5325183;26;20222;-60
2024/04/19 01:24:14;;;;;;;;;;;;;;;4.88;100.00;99291.06;5327408;26;20119;-57
2024/04/19 01:26:47;;;;;;;;;;;;;;;4.91;100.00;99293.31;5326515;26;20008;-58
2024/04/19 01:29:14;;;;;;;;;;;;;;;4.77;100.00;99299.66;5322994;26;19927;-57
2024/04/19 01:31:44;;;;;;;;;;;;;;;4.81;100.00;99284.94;5322303;26;19941;-60
2024/04/19 01:34:11;;;;;;;;;;;;;;;4.71;100.00;99269.41;5325200;26;19934;-58
2024/04/19 01:36:41;;;;;;;;;;;;;;;4.83;100.00;99271.47;5313680;26;19940;-58
2024/04/19 01:39:09;;;;;;;;;;;;;;;4.74;100.00;99269.00;5327880;26;19926;-58
2024/04/19 01:41:39;;;;;;;;;;;;;;;4.77;100.00;99267.78;5326951;26;19942;-58
2024/04/19 01:44:09;;;;;;;;;;;;;;;4.81;100.00;99261.03;5326504;26;19934;-58
2024/04/19 01:46:39;;;;;;;;;;;;;;;4.72;100.00;99254.31;5313827;26;19933;-58
2024/04/19 01:49:07;;;;;;;;;;;;;;;4.74;100.00;99250.41;5312410;26;19950;-58
2024/04/19 01:51:37;;;;;;;;;;;;;;;4.96;100.00;99253.66;5328612;26;20319;-58
2024/04/19 01:54:04;;;;;;;;;;;;;;;4.97;100.00;99252.66;5320774;26;19990;-58
2024/04/19 01:56:34;;;;;;;;;;;;;;;4.96;100.00;99243.03;5321734;26;19926;-58
2024/04/19 01:59:02;;;;;;;;;;;;;;;5.07;100.00;99240.81;5321129;26;19930;-58
2024/04/19 02:01:34;;;;;;;;;;;;;;;5.11;100.00;99231.38;5321423;26;19936;-59
2024/04/19 02:04:02;;;;;;;;;;;;;;;5.19;100.00;99234.66;5326060;26;20724;-59
2024/04/19 02:06:32;;;;;;;;;;;;;;;5.24;100.00;99225.22;5332849;26;20004;-58
2024/04/19 02:08:59;;;;;;;;;;;;;;;5.15;100.00;99240.59;5318219;26;20051;-59
2024/04/19 02:11:29;;;;;;;;;;;;;;;5.05;100.00;99232.22;5322960;26;19934;-59
2024/04/19 02:13:56;;;;;;;;;;;;;;;4.90;100.00;99232.44;5328192;26;20017;-58
2024/04/19 02:16:26;;;;;;;;;;;;;;;4.94;100.00;99226.50;5330376;26;19952;-59
2024/04/19 02:18:56;;;;;;;;;;;;;;;4.98;100.00;99227.72;5330478;26;19926;-58
2024/04/19 02:21:27;;;;;;;;;;;;;;;5.21;100.00;99229.13;5325211;26;20459;-58
2024/04/19 02:23:54;;;;;;;;;;;;;;;5.17;100.00;99222.59;5330872;26;19996;-58
2024/04/19 02:26:24;;;;;;;;;;;;;;;5.15;100.00;99224.66;5321002;26;19934;-58
2024/04/19 02:31:40;;;;;;;;;;;;;;;5.30;100.00;99219.91;5326468;26;20384;-58
2024/04/19 02:34:13;;;;;;;;;;;;;;;5.36;100.00;99205.78;5330394;26;20458;-58
2024/04/19 02:36:43;;;;;;;;;;;;;;;5.57;99.64;99214.53;5324377;26;20008;-58
2024/04/19 02:39:14;;;;;;;;;;;;;;;5.80;95.98;99204.19;5331694;26;19926;-58
2024/04/19 02:41:44;;;;;;;;;;;;;;;5.83;93.91;99197.63;5323537;26;19933;-58
2024/04/19 02:44:13;;;;;;;;;;;;;;;5.89;93.82;99190.63;5329901;26;20254;-58
2024/04/19 02:46:43;;;;;;;;;;;;;;;5.99;94.58;99191.00;5329829;26;19933;-58
2024/04/19 02:49:16;;;;;;;;;;;;;;;6.06;91.29;99186.47;5322923;26;19926;-58
2024/04/19 02:51:46;;;;;;;;;;;;;;;6.14;89.58;99188.91;5322916;26;19937;-58
2024/04/19 02:54:16;;;;;;;;;;;;;;;6.08;90.22;99179.09;5327897;26;19941;-59
2024/04/19 02:56:45;;;;;;;;;;;;;;;6.16;88.38;99180.69;5329087;26;19937;-58
2024/04/19 02:59:15;;;;;;;;;;;;;;;6.13;87.99;99179.28;5330226;26;19932;-58
2024/04/19 03:01:45;;;;;;;;;;;;;;;6.12;90.63;99179.50;5331019;26;19932;-59
2024/04/19 03:04:18;;;;;;;;;;;;;;;6.12;90.70;99174.19;5332033;26;19926;-58
2024/04/19 03:06:48;;;;;;;;;;;;;;;6.01;88.50;99183.63;5328393;26;19934;-58
2024/04/19 03:09:18;;;;;;;;;;;;;;;5.95;83.03;99168.53;5326995;26;20016;-58
2024/04/19 03:11:51;;;;;;;;;;;;;;;5.95;84.61;99160.56;5329971;26;19934;-58
2024/04/19 03:14:22;;;;;;;;;;;;;;;5.86;86.11;99154.63;5329452;26;20475;-58
2024/04/19 03:16:53;;;;;;;;;;;;;;;5.79;81.84;99141.41;5330681;26;19999;-58
2024/04/19 03:19:44;;;;;;;;;;;;;;;5.94;78.42;99134.97;5326917;26;19938;-60
2024/04/19 03:22:14;;;;;;;;;;;;;;;5.91;79.19;99138.03;5328194;26;19967;-58
2024/04/19 03:24:44;;;;;;;;;;;;;;;5.92;77.07;99129.03;5324114;26;20682;-59
2024/04/19 03:27:14;;;;;;;;;;;;;;;5.94;77.00;99129.66;5320991;26;19934;-58
2024/04/19 03:29:54;;;;;;;;;;;;;;;5.91;74.30;99124.72;5328067;26;19957;-58
2024/04/19 03:32:24;;;;;;;;;;;;;;;6.03;70.44;99107.09;5327759;26;20222;-58
2024/04/19 03:34:57;;;;;;;;;;;;;;;6.01;70.69;99109.16;5328856;26;19925;-58
2024/04/19 03:37:27;;;;;;;;;;;;;;;6.01;68.94;99094.00;5329563;26;20263;-58
2024/04/19 03:39:57;;;;;;;;;;;;;;;6.16;67.26;99084.88;5328291;26;19926;-58
2024/04/19 03:42:27;;;;;;;;;;;;;;;6.17;67.69;99070.56;5320421;26;19926;-58
2024/04/19 03:47:42;;;;;;;;;;;;;;;6.16;66.37;99060.94;5328050;26;20743;-58
2024/04/19 03:50:15;;;;;;;;;;;;;;;6.30;67.08;99053.66;5328783;26;19926;-58
2024/04/19 03:52:45;;;;;;;;;;;;;;;6.19;63.52;99048.03;5330355;26;19926;-60
2024/04/19 03:55:15;;;;;;;;;;;;;;;6.25;65.14;99046.31;5326361;26;20012;-58
2024/04/19 03:57:44;;;;;;;;;;;;;;;6.13;64.60;99038.22;5326714;26;19926;-59
2024/04/19 04:00:15;;;;;;;;;;;;;;;6.25;63.76;99033.81;5329139;26;21009;-58
2024/04/19 04:02:45;;;;;;;;;;;;;;;6.22;61.56;99034.28;5331412;26;19925;-58
2024/04/19 04:05:17;;;;;;;;;;;;;;;6.26;61.59;99027.50;5330962;26;20341;-58
2024/04/19 04:07:47;;;;;;;;;;;;;;;6.22;61.64;99026.28;5322569;26;19930;-58
2024/04/19 04:10:17;;;;;;;;;;;;;;;6.26;61.78;99027.50;5319849;26;19950;-58
2024/04/19 04:12:49;;;;;;;;;;;;;;;6.29;62.80;99028.06;5323670;26;19941;-59
2024/04/19 04:15:19;;;;;;;;;;;;;;;6.20;62.65;99030.19;5330597;26;20303;-59
2024/04/19 04:17:50;;;;;;;;;;;;;;;6.13;63.95;99014.28;5343768;26;19938;-58
2024/04/19 04:20:22;;;;;;;;;;;;;;;6.08;63.95;99003.47;5299234;26;19937;-58
2024/04/19 04:22:52;;;;;;;;;;;;;;;6.05;65.81;99001.25;5326996;26;19951;-60
2024/04/19 04:25:22;;;;;;;;;;;;;;;6.12;66.53;98998.56;5319497;26;20762;-59
2024/04/19 04:27:52;;;;;;;;;;;;;;;6.02;67.85;98989.22;5315131;26;19938;-58
2024/04/19 04:30:22;;;;;;;;;;;;;;;6.06;68.40;98994.91;5325768;26;20391;-58
2024/04/19 04:32:51;;;;;;;;;;;;;;;6.06;69.19;99000.22;5322543;26;19926;-58
2024/04/19 04:35:24;;;;;;;;;;;;;;;5.90;71.21;99003.41;5320826;26;19926;-59
2024/04/19 04:37:54;;;;;;;;;;;;;;;5.75;74.42;98999.22;5328642;26;20744;-58
2024/04/19 04:40:23;;;;;;;;;;;;;;;5.69;76.48;99009.91;5317857;26;19926;-59
2024/04/19 04:42:53;;;;;;;;;;;;;;;5.63;78.85;98996.44;5328563;26;19934;-58
2024/04/19 04:45:23;;;;;;;;;;;;;;;5.49;80.57;98989.63;5328206;26;19926;-58
2024/04/19 04:47:53;;;;;;;;;;;;;;;5.53;81.13;98984.66;5330115;26;19925;-58
2024/04/19 04:50:26;;;;;;;;;;;;;;;5.48;82.67;98987.16;5326278;26;20352;-59
2024/04/19 04:53:01;;;;;;;;;;;;;;;5.43;82.38;98982.47;5328197;26;19934;-58
2024/04/19 04:55:32;;;;;;;;;;;;;;;5.40;84.02;98986.38;5319459;26;19933;-58
2024/04/19 04:58:04;;;;;;;;;;;;;;;5.40;85.53;98980.25;5311942;26;19998;-58
2024/04/19 05:00:34;;;;;;;;;;;;;;;5.29;87.07;98984.44;5320730;26;19937;-58
2024/04/19 05:03:05;;;;;;;;;;;;;;;5.23;88.56;98971.16;5327954;26;19937;-58
2024/04/19 05:05:38;;;;;;;;;;;;;;;5.30;89.68;98972.75;5325905;26;20006;-58
2024/04/19 05:08:08;;;;;;;;;;;;;;;5.23;90.27;98968.50;5328315;26;19933;-58
2024/04/19 05:10:38;;;;;;;;;;;;;;;5.14;92.74;98966.13;5326986;26;19926;-58
2024/04/19 05:13:08;;;;;;;;;;;;;;;5.07;94.24;98959.22;5319511;26;20273;-59
2024/04/19 05:15:37;;;;;;;;;;;;;;;5.04;95.59;98959.63;5326995;26;20346;-58
2024/04/19 05:18:07;;;;;;;;;;;;;;;5.01;97.92;98965.38;5327977;26;19926;-58
2024/04/19 05:20:40;;;;;;;;;;;;;;;4.98;99.62;98961.28;5325513;26;19930;-58
2024/04/19 05:23:10;;;;;;;;;;;;;;;4.96;99.83;98948.22;5330255;26;19926;-58
2024/04/19 05:25:39;;;;;;;;;;;;;;;4.90;100.00;98933.13;5328952;26;19926;-58
2024/04/19 05:28:09;;;;;;;;;;;;;;;4.92;100.00;98943.56;5325536;26;20242;-59
2024/04/19 05:30:39;;;;;;;;;;;;;;;4.85;100.00;98935.63;5294941;26;19941;-58
2024/04/19 05:33:09;;;;;;;;;;;;;;;4.93;100.00;98938.03;5327914;26;19926;-58
2024/04/19 05:35:41;;;;;;;;;;;;;;;4.76;100.00;98932.38;5317776;26;20332;-58
2024/04/19 05:38:11;;;;;;;;;;;;;;;4.71;100.00;98923.44;5326294;26;19945;-58
2024/04/19 05:40:41;;;;;;;;;;;;;;;4.64;100.00;98910.22;5350355;26;20369;-58
2024/04/19 05:43:11;;;;;;;;;;;;;;;4.64;100.00;98912.88;5327970;26;19926;-59
2024/04/19 05:45:41;;;;;;;;;;;;;;;4.67;100.00;98908.97;5319381;26;20677;-58
2024/04/19 05:48:13;;;;;;;;;;;;;;;4.60;100.00;98909.00;5328561;26;19937;-58
2024/04/19 05:50:46;;;;;;;;;;;;;;;4.67;100.00;98893.03;5329677;26;19956;-58
2024/04/19 05:53:16;;;;;;;;;;;;;;;4.59;100.00;98896.72;5327985;26;19946;-57
2024/04/19 05:55:46;;;;;;;;;;;;;;;4.63;100.00;98889.16;5330928;26;19937;-60
2024/04/19 05:58:16;;;;;;;;;;;;;;;4.62;100.00;98887.53;5324661;26;20304;-58
2024/04/19 06:00:46;;;;;;;;;;;;;;;4.54;100.00;98880.63;5329695;26;19937;-60
2024/04/19 06:03:16;;;;;;;;;;;;;;;4.64;100.00;98874.84;5322385;26;19926;-58
2024/04/19 06:05:48;;;;;;;;;;;;;;;4.52;100.00;98872.88;5324818;26;20380;-60
2024/04/19 06:08:18;;;;;;;;;;;;;;;4.52;100.00;98862.28;5324586;26;19926;-58
2024/04/19 06:10:48;;;;;;;;;;;;;;;4.60;100.00;98857.75;5322125;26;19926;-58
2024/04/19 06:13:18;;;;;;;;;;;;;;;4.62;100.00;98860.97;5328979;26;19938;-58
2024/04/19 06:15:50;;;;;;;;;;;;;;;4.51;100.00;98863.28;5330418;26;19932;-58
2024/04/19 06:18:19;;;;;;;;;;;;;;;4.54;100.00;98860.22;5329705;26;19926;-58
2024/04/19 06:20:52;;;;;;;;;;;;;;;4.61;100.00;98860.16;5326514;26;19973;-59
2024/04/19 06:23:22;;;;;;;;;;;;;;;4.48;100.00;98858.41;5327910;26;19938;-59
2024/04/19 06:25:55;;;;;;;;;;;;;;;4.61;100.00;98846.91;5320101;26;19926;-59
2024/04/19 06:28:25;;;;;;;;;;;;;;;4.65;100.00;98844.66;5329026;26;19926;-58
2024/04/19 06:30:55;;;;;;;;;;;;;;;4.72;100.00;98845.44;5350838;26;19941;-59
2024/04/19 06:33:25;;;;;;;;;;;;;;;4.69;100.00;98836.06;5328258;26;19933;-58
2024/04/19 06:35:59;;;;;;;;;;;;;;;4.73;100.00;98833.78;5329565;26;19972;-58
2024/04/19 06:38:29;;;;;;;;;;;;;;;4.54;100.00;98822.22;5327157;26;19925;-59
2024/04/19 06:40:59;;;;;;;;;;;;;;;4.80;100.00;98825.78;5327703;26;19926;-58
2024/04/19 06:43:29;;;;;;;;;;;;;;;4.73;100.00;98809.88;5326310;26;19933;-58
2024/04/19 06:45:58;;;;;;;;;;;;;;;4.65;100.00;98807.50;5329392;26;19933;-59
2024/04/19 06:48:28;;;;;;;;;;;;;;;4.74;100.00;98807.00;5330789;26;19941;-58
2024/04/19 06:51:04;;;;;;;;;;;;;;;4.78;100.00;98795.97;5328601;26;19938;-59
2024/04/19 06:53:34;;;;;;;;;;;;;;;4.66;100.00;98801.13;5330542;26;19925;-58
2024/04/19 06:56:03;;;;;;;;;;;;;;;4.75;100.00;98786.59;5328464;26;20701;-59
2024/04/19 06:58:33;;;;;;;;;;;;;;;4.64;100.00;98789.91;5327631;26;19954;-59
2024/04/19 07:01:06;;;;;;;;;;;;;;;4.74;100.00;98787.59;5330792;26;19926;-59
2024/04/19 07:03:40;;;;;;;;;;;;;;;4.81;100.00;98779.59;5329138;26;19926;-58
2024/04/19 07:06:13;;;;;;;;;;;;;;;4.81;100.00;98775.09;5316764;26;20585;-60
2024/04/19 07:08:46;;;;;;;;;;;;;;;4.80;100.00;98773.47;5320255;26;19934;-59
2024/04/19 07:11:15;;;;;;;;;;;;;;;4.79;100.00;98771.03;5321133;26;20421;-60
2024/04/19 07:13:47;;;;;;;;;;;;;;;4.89;100.00;98763.38;5320154;26;19934;-59
2024/04/19 07:16:17;;;;;;;;;;;;;;;4.96;100.00;98764.94;5327528;26;20474;-60
2024/04/19 07:18:49;;;;;;;;;;;;;;;4.89;100.00;98755.41;5328533;26;19926;-59
2024/04/19 07:21:21;;;;;;;;;;;;;;;4.92;100.00;98745.19;5319552;26;20289;-59
2024/04/19 07:23:52;;;;;;;;;;;;;;;4.95;100.00;98739.44;5331631;26;19926;-59
2024/04/19 07:26:21;;;;;;;;;;;;;;;5.07;100.00;98734.22;5325400;26;20872;-59
2024/04/19 07:28:51;;;;;;;;;;;;;;;5.07;100.00;98733.44;5323774;26;19926;-59
2024/04/19 07:31:21;;;;;;;;;;;;;;;5.11;100.00;98726.63;5323593;26;19932;-59
2024/04/19 07:33:51;;;;;;;;;;;;;;;5.13;100.00;98724.56;5322159;26;20269;-59
2024/04/19 07:36:24;;;;;;;;;;;;;;;5.13;100.00;98724.56;5329026;26;20424;-59
2024/04/19 07:38:54;;;;;;;;;;;;;;;5.23;100.00;98721.41;5330558;26;20610;-59
2024/04/19 07:41:24;;;;;;;;;;;;;;;5.18;100.00;98712.25;5325991;26;19933;-59
2024/04/19 07:43:54;;;;;;;;;;;;;;;5.17;100.00;98704.50;5326883;26;19926;-59
2024/04/19 07:46:24;;;;;;;;;;;;;;;5.14;100.00;98700.44;5325593;26;19981;-59
2024/04/19 07:48:54;;;;;;;;;;;;;;;5.09;100.00;98694.97;5321777;26;20466;-59
2024/04/19 07:51:26;;;;;;;;;;;;;;;5.32;100.00;98704.97;5328047;26;19926;-59
2024/04/19 07:53:56;;;;;;;;;;;;;;;5.41;100.00;98679.69;5314707;26;20280;-59
2024/04/19 07:56:28;;;;;;;;;;;;;;;5.33;100.00;98684.50;5326696;26;19933;-59
2024/04/19 07:58:58;;;;;;;;;;;;;;;5.29;100.00;98692.13;5328797;26;19972;-59
2024/04/19 08:01:28;;;;;;;;;;;;;;;5.34;100.00;98688.78;5320594;26;20545;-59
2024/04/19 08:03:58;;;;;;;;;;;;;;;5.47;100.00;98690.50;5329790;26;19933;-59
2024/04/19 08:06:31;;;;;;;;;;;;;;;5.36;100.00;98676.09;5327427;26;19933;-60
2024/04/19 08:09:02;;;;;;;;;;;;;;;5.36;100.00;98670.78;5329745;26;19933;-59
2024/04/19 08:11:32;;;;;;;;;;;;;;;5.49;100.00;98677.78;5328440;26;19926;-59
2024/04/19 08:14:02;;;;;;;;;;;;;;;5.54;100.00;98678.75;5322219;26;20000;-59
2024/04/19 08:16:32;;;;;;;;;;;;;;;5.57;100.00;98677.50;5322162;26;19933;-60
2024/04/19 08:18:59;;;;;;;;;;;;;;;5.45;100.00;98671.28;5326849;26;19926;-59
2024/04/19 08:21:32;;;;;;;;;;;;;;;5.67;100.00;98671.66;5331025;26;20339;-58
2024/04/19 08:24:03;;;;;;;;;;;;;;;5.51;100.00;98673.06;5324228;26;19926;-59
2024/04/19 08:26:32;;;;;;;;;;;;;;;5.80;100.00;98666.94;5327666;26;19926;-59
2024/04/19 08:29:02;;;;;;;;;;;;;;;5.82;100.00;98664.88;5312813;26;19934;-59
2024/04/19 08:31:34;;;;;;;;;;;;;;;5.98;100.00;98658.13;5326500;26;19929;-59
2024/04/19 08:34:04;;;;;;;;;;;;;;;6.00;100.00;98663.25;5327409;26;20382;-59
2024/04/19 08:36:36;;;;;;;;;;;;;;;6.05;100.00;98661.53;5327893;26;20002;-59
2024/04/19 08:39:08;;;;;;;;;;;;;;;5.95;100.00;98660.44;5329977;26;19937;-59
2024/04/19 08:41:38;;;;;;;;;;;;;;;6.19;100.00;98664.81;5324941;26;20289;-59
2024/04/19 08:44:08;;;;;;;;;;;;;;;6.41;100.00;98664.25;5330371;26;20755;-59
2024/04/19 08:46:38;;;;;;;;;;;;;;;6.48;100.00;98665.78;5329578;26;20258;-59
2024/04/19 08:49:08;;;;;;;;;;;;;;;6.24;100.00;98654.28;5328512;26;19933;-59
2024/04/19 08:51:41;;;;;;;;;;;;;;;6.24;100.00;98651.63;5329828;26;19926;-59
2024/04/19 08:54:11;;;;;;;;;;;;;;;6.45;100.00;98654.78;5330568;26;19933;-58
2024/04/19 08:56:41;;;;;;;;;;;;;;;6.36;100.00;98653.50;5322871;26;19926;-58
2024/04/19 08:59:11;;;;;;;;;;;;;;;6.61;100.00;98654.09;5330044;26;19933;-58
2024/04/19 09:01:41;;;;;;;;;;;;;;;6.80;100.00;98654.00;5355497;26;19926;-58
2024/04/19 09:04:11;;;;;;;;;;;;;;;6.82;100.00;98635.94;5327424;26;20633;-59
2024/04/19 09:06:46;;;;;;;;;;;;;;;6.83;100.00;98632.22;5327540;26;19933;-59
2024/04/19 09:09:16;;;;;;;;;;;;;;;6.84;100.00;98629.34;5321737;26;19934;-59
2024/04/19 09:11:46;;;;;;;;;;;;;;;6.92;100.00;98644.16;5325738;26;19925;-58
2024/04/19 09:14:15;;;;;;;;;;;;;;;7.09;100.00;98626.41;5317871;26;19932;-59
2024/04/19 09:16:45;;;;;;;;;;;;;;;7.09;100.00;98641.59;5321184;26;19933;-59
2024/04/19 09:19:15;;;;;;;;;;;;;;;7.28;100.00;98623.59;5327838;26;20043;-59
2024/04/19 09:21:49;;;;;;;;;;;;;;;7.52;100.00;98619.00;5329062;26;19937;-59
2024/04/19 09:24:19;;;;;;;;;;;;;;;7.59;100.00;98610.84;5325329;26;19926;-58
2024/04/19 09:26:50;;;;;;;;;;;;;;;7.75;100.00;98612.75;5323512;26;20652;-59
2024/04/19 09:29:24;;;;;;;;;;;;;;;7.61;100.00;98606.09;5324770;26;19933;-59
2024/04/19 09:31:54;;;;;;;;;;;;;;;7.58;100.00;98607.38;5331074;26;19933;-59
2024/04/19 09:34:24;;;;;;;;;;;;;;;7.60;100.00;98591.16;5328607;26;19958;-59
2024/04/19 09:36:57;;;;;;;;;;;;;;;7.45;100.00;98599.66;5330031;26;20003;-58
2024/04/19 09:39:26;;;;;;;;;;;;;;;7.43;100.00;98594.56;5320157;26;20353;-59
2024/04/19 09:41:56;;;;;;;;;;;;;;;7.28;100.00;98607.59;5328966;26;19926;-58
2024/04/19 09:44:27;;;;;;;;;;;;;;;7.57;100.00;98590.56;5325634;26;19926;-59
2024/04/19 09:46:59;;;;;;;;;;;;;;;7.70;100.00;98592.13;5318685;26;19927;-59
2024/04/19 09:49:28;;;;;;;;;;;;;;;7.67;100.00;98589.16;5330968;26;19926;-59
2024/04/19 09:52:01;;;;;;;;;;;;;;;8.00;100.00;98589.19;5328295;26;19934;-59
2024/04/19 09:54:36;;;;;;;;;;;;;;;8.22;100.00;98569.81;5324815;26;19950;-59
2024/04/19 09:57:06;;;;;;;;;;;;;;;8.20;100.00;98574.56;5325698;26;20323;-59
2024/04/19 09:59:36;;;;;;;;;;;;;;;8.35;100.00;98580.16;5330710;26;19934;-59
2024/04/19 10:02:06;;;;;;;;;;;;;;;8.08;100.00;98568.50;5329636;26;19993;-59
2024/04/19 10:04:40;;;;;;;;;;;;;;;8.04;100.00;98560.19;5325785;26;19935;-59
2024/04/19 10:07:12;;;;;;;;;;;;;;;8.49;100.00;98566.50;5325109;26;19937;-59
2024/04/19 10:09:42;;;;;;;;;;;;;;;8.44;100.00;98567.25;5327706;26;19926;-59
2024/04/19 10:12:12;;;;;;;;;;;;;;;8.70;100.00;98552.38;5323797;26;19926;-59
2024/04/19 10:14:42;;;;;;;;;;;;;;;9.10;100.00;98547.78;5329100;26;19926;-58
2024/04/19 10:17:11;;;;;;;;;;;;;;;9.07;100.00;98552.56;5331127;26;19926;-59
2024/04/19 10:19:43;;;;;;;;;;;;;;;8.84;100.00;98547.50;5326321;26;20256;-59
2024/04/19 10:22:16;;;;;;;;;;;;;;;8.41;100.00;98546.34;5327913;26;20284;-59
2024/04/19 10:24:46;;;;;;;;;;;;;;;8.90;100.00;98543.81;5327371;26;19926;-59
2024/04/19 10:27:16;;;;;;;;;;;;;;;8.75;100.00;98536.41;5321121;26;19926;-59
2024/04/19 10:29:45;;;;;;;;;;;;;;;8.89;100.00;98530.72;5326888;26;19926;-59
2024/04/19 10:32:18;;;;;;;;;;;;;;;8.98;100.00;98526.53;5325524;26;19956;-59
2024/04/19 10:34:48;;;;;;;;;;;;;;;8.81;100.00;98524.75;5325376;26;19965;-58
2024/04/19 10:37:20;;;;;;;;;;;;;;;9.26;100.00;98521.00;5323813;26;19933;-58
2024/04/19 10:39:50;;;;;;;;;;;;;;;8.99;100.00;98514.81;5331249;26;19926;-58
2024/04/19 10:42:20;;;;;;;;;;;;;;;8.71;100.00;98519.28;5327477;26;19969;-59
2024/04/19 10:44:51;;;;;;;;;;;;;;;8.82;100.00;98521.00;5327872;26;19995;-59
2024/04/19 10:47:22;;;;;;;;;;;;;;;8.87;100.00;98503.44;5331124;26;19941;-58
2024/04/19 10:49:52;;;;;;;;;;;;;;;9.15;100.00;98505.88;5331963;26;19934;-59
2024/04/19 10:52:25;;;;;;;;;;;;;;;9.16;100.00;98501.34;5330942;26;19934;-59
2024/04/19 10:54:55;;;;;;;;;;;;;;;9.41;100.00;98498.13;5331421;26;20314;-58
2024/04/19 10:57:28;;;;;;;;;;;;;;;9.64;100.00;98497.81;5326261;26;19929;-59
2024/04/19 10:59:58;;;;;;;;;;;;;;;9.61;100.00;98482.28;5324268;26;19937;-59
2024/04/19 11:02:29;;;;;;;;;;;;;;;9.85;100.00;98476.56;5326091;26;20624;-59
2024/04/19 11:05:00;;;;;;;;;;;;;;;10.52;100.00;98489.38;5329891;26;19926;-59
2024/04/19 11:07:30;;;;;;;;;;;;;;;9.57;100.00;98478.50;5321198;26;19933;-59
2024/04/19 11:10:00;;;;;;;;;;;;;;;9.65;100.00;98475.34;5328637;26;19934;-58
2024/04/19 11:12:30;;;;;;;;;;;;;;;9.52;100.00;98458.91;5327531;26;20349;-58
2024/04/19 11:15:00;;;;;;;;;;;;;;;9.18;100.00;98469.81;5320679;26;19938;-59
2024/04/19 11:17:30;;;;;;;;;;;;;;;9.08;100.00;98462.50;5322610;26;19926;-59
2024/04/19 11:20:00;;;;;;;;;;;;;;;9.07;100.00;98447.53;5330286;26;19925;-58
2024/04/19 11:22:36;;;;;;;;;;;;;;;9.35;100.00;98445.66;5327371;26;19925;-59
2024/04/19 11:25:07;;;;;;;;;;;;;;;9.04;100.00;98445.38;5327086;26;19937;-59
2024/04/19 11:27:34;;;;;;;;;;;;;;;9.23;100.00;98441.25;5320902;26;19958;-58
2024/04/19 11:30:04;;;;;;;;;;;;;;;9.24;100.00;98442.88;5329752;26;22007;-59
2024/04/19 11:32:34;;;;;;;;;;;;;;;9.20;100.00;98428.41;5329061;26;19934;-59
2024/04/19 11:35:08;;;;;;;;;;;;;;;9.49;100.00;98428.13;5331318;26;19926;-59
2024/04/19 11:37:40;;;;;;;;;;;;;;;9.16;100.00;98432.66;5329996;26;19926;-59
2024/04/19 11:40:21;;;;;;;;;;;;;;;9.62;100.00;98427.69;5329791;26;19961;-59
2024/04/19 11:42:52;;;;;;;;;;;;;;;9.49;100.00;98434.28;5327951;26;19937;-60
2024/04/19 11:45:22;;;;;;;;;;;;;;;9.57;100.00;98435.69;5325119;26;19996;-59
2024/04/19 11:47:52;;;;;;;;;;;;;;;9.36;100.00;98433.88;5351659;26;20955;-59
2024/04/19 11:50:24;;;;;;;;;;;;;;;9.31;100.00;98432.00;5322150;26;20411;-59
2024/04/19 11:52:56;;;;;;;;;;;;;;;9.31;100.00;98432.00;5327396;26;20065;-59
2024/04/19 11:55:26;;;;;;;;;;;;;;;9.32;100.00;98430.94;5325072;26;19926;-59
2024/04/19 11:57:58;;;;;;;;;;;;;;;9.33;100.00;98435.19;5327708;26;19926;-59
2024/04/19 12:00:28;;;;;;;;;;;;;;;9.28;100.00;98429.81;5328640;26;19926;-59
2024/04/19 12:02:58;;;;;;;;;;;;;;;9.29;100.00;98434.13;5320622;26;19926;-59
2024/04/19 12:05:28;;;;;;;;;;;;;;;9.41;100.00;98439.28;5326218;26;19934;-59
2024/04/19 12:08:02;;;;;;;;;;;;;;;9.24;100.00;98432.19;5329616;26;19933;-59
2024/04/19 12:10:32;;;;;;;;;;;;;;;9.18;100.00;98432.38;5311966;26;19942;-59
2024/04/19 12:13:02;;;;;;;;;;;;;;;9.11;100.00;98443.31;5329910;26;19979;-59
2024/04/19 12:15:35;;;;;;;;;;;;;;;8.93;100.00;98448.97;5325307;26;19938;-59
2024/04/19 12:18:06;;;;;;;;;;;;;;;8.88;100.00;98455.06;5301641;26;19926;-59
2024/04/19 12:20:36;;;;;;;;;;;;;;;8.63;100.00;98461.72;5325474;26;19926;-58
2024/04/19 12:23:12;;;;;;;;;;;;;;;8.47;100.00;98465.25;5327321;26;20648;-59
2024/04/19 12:25:42;;;;;;;;;;;;;;;8.38;100.00;98475.50;5326553;26;19933;-59
2024/04/19 12:28:12;;;;;;;;;;;;;;;8.41;100.00;98479.56;5329284;26;19930;-59
2024/04/19 12:30:43;;;;;;;;;;;;;;;8.13;100.00;98486.63;5318589;26;19925;-59
2024/04/19 12:33:13;;;;;;;;;;;;;;;8.08;100.00;98485.75;5320490;26;19989;-59
2024/04/19 12:35:43;;;;;;;;;;;;;;;8.12;100.00;98484.22;5317555;26;20952;-59
2024/04/19 12:38:15;;;;;;;;;;;;;;;8.20;100.00;98491.81;5327585;26;19926;-59
2024/04/19 12:40:45;;;;;;;;;;;;;;;8.32;100.00;98492.53;5347859;26;20417;-58
2024/04/19 12:43:15;;;;;;;;;;;;;;;8.15;100.00;98489.88;5324085;26;19933;-58
2024/04/19 12:45:49;;;;;;;;;;;;;;;8.16;100.00;98493.34;5327895;26;19937;-58
2024/04/19 12:48:20;;;;;;;;;;;;;;;7.93;100.00;98487.13;5329373;26;19934;-58
2024/04/19 12:50:50;;;;;;;;;;;;;;;7.97;100.00;98466.13;5328373;26;19934;-58
2024/04/19 12:53:23;;;;;;;;;;;;;;;8.05;100.00;98479.06;5329046;26;19932;-58
2024/04/19 12:55:53;;;;;;;;;;;;;;;8.03;100.00;98459.00;5321748;26;20484;-58
2024/04/19 12:58:23;;;;;;;;;;;;;;;8.19;100.00;98466.19;5328791;26;19930;-59
2024/04/19 13:00:53;;;;;;;;;;;;;;;8.23;100.00;98448.59;5325644;26;19926;-59
2024/04/19 13:03:24;;;;;;;;;;;;;;;8.30;100.00;98433.22;5323935;26;20369;-59
2024/04/19 13:05:54;;;;;;;;;;;;;;;8.32;100.00;98428.44;5319892;26;19933;-58
2024/04/19 13:08:27;;;;;;;;;;;;;;;8.29;100.00;98426.28;5313264;26;19983;-59
2024/04/19 13:10:57;;;;;;;;;;;;;;;8.48;100.00;98426.00;5320265;26;19934;-58
2024/04/19 13:13:26;;;;;;;;;;;;;;;8.70;100.00;98424.13;5320441;26;19926;-59